ExpreSS Skopelitis — SW3130 — position and weather

sailwx.info

Track history (hours):
 
Tides and Currents Weather Stations Pressure Air Temp Water Temp Dewpoint Dewpoint Depression Visibility Wind Speed Wind Dir Waves Ship Positions

ExpreSS Skopelitis

Last reported at 2017-Feb-21 12:34 UTC. Time now 2017-Feb-21 19:04 UTC.
Position N 37°02' E 025°21'.

Length 45 m; draft 2.4 m.

Type: Passenger vessel. MMSI: 237029400.

Date/timePositionNaut miles runAvg speedWind from/ knotsBaromVisibWave heightAir tempDewpointWater temp
2017-Feb-21 12:34N 37°02' E 025°21'5 4.9
2017-Feb-21 11:34N 37°06' E 025°22'0 0.0
2017-Feb-21 10:34N 37°06' E 025°22'0 0.0
2017-Feb-21 09:34N 37°06' E 025°22'1 1.2
2017-Feb-21 08:34N 37°06' E 025°21'4 0.2
2017-Feb-20 12:34N 37°01' E 025°21'5 4.9
2017-Feb-20 11:34N 37°06' E 025°22'0 0.0
2017-Feb-20 10:34N 37°06' E 025°22'4 3.7
2017-Feb-20 09:34N 37°03' E 025°20'1 0.0
2017-Feb-18 12:34N 37°02' E 025°21'4 4.5
2017-Feb-18 11:34N 37°06' E 025°22'0 0.0
2017-Feb-18 10:34N 37°06' E 025°22'5 4.8
2017-Feb-18 09:34N 37°02' E 025°21'1 0.0
2017-Feb-17 12:33N 37°02' E 025°21'4 4.2
2017-Feb-17 11:34N 37°06' E 025°22'0 0.0
2017-Feb-17 10:34N 37°06' E 025°22'0 0.0
2017-Feb-17 09:34N 37°06' E 025°22'3 3.2
2017-Feb-17 08:34N 37°04' E 025°20'2 0.1
2017-Feb-16 12:33N 37°02' E 025°21'5 4.8
2017-Feb-16 11:33N 37°06' E 025°22'0 0.0
2017-Feb-16 10:33N 37°06' E 025°22'0 0.0
2017-Feb-16 09:33N 37°06' E 025°22'6 5.6
2017-Feb-16 08:33N 37°01' E 025°21'1 0.0
2017-Feb-15 12:33N 37°02' E 025°21'5 4.9
2017-Feb-15 11:33N 37°06' E 025°22'0 0.0
2017-Feb-15 10:33N 37°06' E 025°22'4 4.5
2017-Feb-15 09:33N 37°02' E 025°21'  
Track history (hours):
 
Tides and Currents Weather Stations Pressure Air Temp Water Temp Dewpoint Dewpoint Depression Visibility Wind Speed Wind Dir Waves Ship Positions

ExpreSS Skopelitis

Last reported at 2017-Feb-21 12:34 UTC. Time now 2017-Feb-21 19:04 UTC.
Position N 37°02' E 025°21'.

Length 45 m; draft 2.4 m.

Type: Passenger vessel. MMSI: 237029400.

Date/timePositionNaut miles runAvg speedWind from/ knotsBaromVisibWave heightAir tempDewpointWater temp
2017-Feb-21 12:34N 37°02' E 025°21'5 4.9
2017-Feb-21 11:34N 37°06' E 025°22'0 0.0
2017-Feb-21 10:34N 37°06' E 025°22'0 0.0
2017-Feb-21 09:34N 37°06' E 025°22'1 1.2
2017-Feb-21 08:34N 37°06' E 025°21'4 0.2
2017-Feb-20 12:34N 37°01' E 025°21'5 4.9
2017-Feb-20 11:34N 37°06' E 025°22'0 0.0
2017-Feb-20 10:34N 37°06' E 025°22'4 3.7
2017-Feb-20 09:34N 37°03' E 025°20'1 0.0
2017-Feb-18 12:34N 37°02' E 025°21'4 4.5
2017-Feb-18 11:34N 37°06' E 025°22'0 0.0
2017-Feb-18 10:34N 37°06' E 025°22'5 4.8
2017-Feb-18 09:34N 37°02' E 025°21'1 0.0
2017-Feb-17 12:33N 37°02' E 025°21'4 4.2
2017-Feb-17 11:34N 37°06' E 025°22'0 0.0
2017-Feb-17 10:34N 37°06' E 025°22'0 0.0
2017-Feb-17 09:34N 37°06' E 025°22'3 3.2
2017-Feb-17 08:34N 37°04' E 025°20'2 0.1
2017-Feb-16 12:33N 37°02' E 025°21'5 4.8
2017-Feb-16 11:33N 37°06' E 025°22'0 0.0
2017-Feb-16 10:33N 37°06' E 025°22'0 0.0
2017-Feb-16 09:33N 37°06' E 025°22'6 5.6
2017-Feb-16 08:33N 37°01' E 025°21'1 0.0
2017-Feb-15 12:33N 37°02' E 025°21'5 4.9
2017-Feb-15 11:33N 37°06' E 025°22'0 0.0
2017-Feb-15 10:33N 37°06' E 025°22'4 4.5
2017-Feb-15 09:33N 37°02' E 025°21'  

Dump ship's entire track history